sensor_id;sensor_type;location;lat;lon;timestamp;pressure;altitude;pressure_sealevel;temperature;humidity
17505;BME280;8870;50.950;11.762;2023-05-16T00:03:14;97888.22;;;11.76;100.00
17505;BME280;8870;50.950;11.762;2023-05-16T00:08:48;97901.25;;;11.72;100.00
17505;BME280;8870;50.950;11.762;2023-05-16T00:14:06;97898.81;;;11.63;100.00
17505;BME280;8870;50.950;11.762;2023-05-16T00:19:40;97900.72;;;11.54;100.00
17505;BME280;8870;50.950;11.762;2023-05-16T00:25:01;97902.84;;;11.44;100.00
17505;BME280;8870;50.950;11.762;2023-05-16T00:30:33;97916.19;;;11.37;100.00
17505;BME280;8870;50.950;11.762;2023-05-16T00:35:51;97928.06;;;11.28;100.00
17505;BME280;8870;50.950;11.762;2023-05-16T00:41:25;97930.63;;;11.21;100.00
17505;BME280;8870;50.950;11.762;2023-05-16T00:46:44;97937.06;;;11.12;100.00
17505;BME280;8870;50.950;11.762;2023-05-16T00:52:15;97933.75;;;11.01;100.00
17505;BME280;8870;50.950;11.762;2023-05-16T00:57:39;97932.13;;;10.92;100.00
17505;BME280;8870;50.950;11.762;2023-05-16T01:03:13;97931.63;;;10.88;100.00
17505;BME280;8870;50.950;11.762;2023-05-16T01:08:33;97931.97;;;10.85;100.00
17505;BME280;8870;50.950;11.762;2023-05-16T01:14:11;97937.06;;;10.80;100.00
17505;BME280;8870;50.950;11.762;2023-05-16T01:19:49;97937.59;;;10.75;100.00
17505;BME280;8870;50.950;11.762;2023-05-16T01:25:36;97946.84;;;10.73;100.00
17505;BME280;8870;50.950;11.762;2023-05-16T01:30:59;97951.75;;;10.69;100.00
17505;BME280;8870;50.950;11.762;2023-05-16T01:36:38;97955.09;;;10.71;100.00
17505;BME280;8870;50.950;11.762;2023-05-16T01:42:04;97951.41;;;10.72;100.00
17505;BME280;8870;50.950;11.762;2023-05-16T01:47:44;97962.13;;;10.81;100.00
17505;BME280;8870;50.950;11.762;2023-05-16T01:53:07;97970.72;;;10.84;100.00
17505;BME280;8870;50.950;11.762;2023-05-16T01:58:38;97973.75;;;10.89;100.00
17505;BME280;8870;50.950;11.762;2023-05-16T02:04:01;97978.25;;;10.97;100.00
17505;BME280;8870;50.950;11.762;2023-05-16T02:09:32;97982.25;;;11.01;100.00
17505;BME280;8870;50.950;11.762;2023-05-16T02:14:50;97983.94;;;11.02;100.00
17505;BME280;8870;50.950;11.762;2023-05-16T02:20:25;97990.41;;;10.93;100.00
17505;BME280;8870;50.950;11.762;2023-05-16T02:25:56;97991.09;;;10.87;100.00
17505;BME280;8870;50.950;11.762;2023-05-16T02:31:24;97992.97;;;10.78;100.00
17505;BME280;8870;50.950;11.762;2023-05-16T02:36:58;97998.22;;;10.71;100.00
17505;BME280;8870;50.950;11.762;2023-05-16T02:42:19;97998.06;;;10.64;100.00
17505;BME280;8870;50.950;11.762;2023-05-16T02:47:51;98008.69;;;10.58;100.00
17505;BME280;8870;50.950;11.762;2023-05-16T02:53:12;98002.63;;;10.56;100.00
17505;BME280;8870;50.950;11.762;2023-05-16T02:58:45;98011.03;;;10.53;100.00
17505;BME280;8870;50.950;11.762;2023-05-16T03:04:04;98026.19;;;10.21;100.00
17505;BME280;8870;50.950;11.762;2023-05-16T03:09:38;98033.25;;;9.97;100.00
17505;BME280;8870;50.950;11.762;2023-05-16T03:14:56;98038.44;;;9.74;100.00
17505;BME280;8870;50.950;11.762;2023-05-16T03:20:29;98048.53;;;9.63;100.00
17505;BME280;8870;50.950;11.762;2023-05-16T03:25:50;98050.03;;;9.58;100.00
17505;BME280;8870;50.950;11.762;2023-05-16T03:31:21;98066.09;;;9.49;100.00
17505;BME280;8870;50.950;11.762;2023-05-16T03:36:41;98074.53;;;9.46;100.00
17505;BME280;8870;50.950;11.762;2023-05-16T03:42:16;98084.09;;;9.49;100.00
17505;BME280;8870;50.950;11.762;2023-05-16T03:47:34;98090.66;;;9.46;100.00
17505;BME280;8870;50.950;11.762;2023-05-16T03:53:06;98096.34;;;9.43;100.00
17505;BME280;8870;50.950;11.762;2023-05-16T03:58:28;98107.41;;;9.40;100.00
17505;BME280;8870;50.950;11.762;2023-05-16T04:03:59;98109.47;;;9.46;100.00
17505;BME280;8870;50.950;11.762;2023-05-16T04:09:17;98104.63;;;9.50;100.00
17505;BME280;8870;50.950;11.762;2023-05-16T04:14:52;98118.41;;;9.55;100.00
17505;BME280;8870;50.950;11.762;2023-05-16T04:20:11;98116.56;;;9.55;100.00
17505;BME280;8870;50.950;11.762;2023-05-16T04:25:41;98125.63;;;9.54;100.00
17505;BME280;8870;50.950;11.762;2023-05-16T04:31:02;98127.16;;;9.57;100.00
17505;BME280;8870;50.950;11.762;2023-05-16T04:36:35;98136.06;;;9.58;100.00
17505;BME280;8870;50.950;11.762;2023-05-16T04:41:54;98142.47;;;9.56;100.00
17505;BME280;8870;50.950;11.762;2023-05-16T04:47:29;98145.81;;;9.59;100.00
17505;BME280;8870;50.950;11.762;2023-05-16T04:53:00;98152.53;;;9.54;100.00
17505;BME280;8870;50.950;11.762;2023-05-16T04:58:18;98166.25;;;9.43;100.00
17505;BME280;8870;50.950;11.762;2023-05-16T05:03:52;98176.00;;;9.44;100.00
17505;BME280;8870;50.950;11.762;2023-05-16T05:09:10;98181.50;;;9.34;100.00
17505;BME280;8870;50.950;11.762;2023-05-16T05:14:42;98179.59;;;9.27;100.00
17505;BME280;8870;50.950;11.762;2023-05-16T05:20:04;98185.94;;;9.17;100.00
17505;BME280;8870;50.950;11.762;2023-05-16T05:25:35;98197.38;;;9.19;100.00
17505;BME280;8870;50.950;11.762;2023-05-16T05:30:54;98208.66;;;9.23;100.00
17505;BME280;8870;50.950;11.762;2023-05-16T05:36:28;98206.16;;;9.30;100.00
17505;BME280;8870;50.950;11.762;2023-05-16T05:41:46;98210.25;;;9.34;100.00
17505;BME280;8870;50.950;11.762;2023-05-16T05:47:17;98204.53;;;9.37;100.00
17505;BME280;8870;50.950;11.762;2023-05-16T05:52:38;98205.91;;;9.41;100.00
17505;BME280;8870;50.950;11.762;2023-05-16T05:58:09;98220.03;;;9.43;100.00
17505;BME280;8870;50.950;11.762;2023-05-16T06:03:27;98223.41;;;9.45;100.00
17505;BME280;8870;50.950;11.762;2023-05-16T06:09:01;98233.63;;;9.41;100.00
17505;BME280;8870;50.950;11.762;2023-05-16T06:14:20;98240.59;;;9.26;100.00
17505;BME280;8870;50.950;11.762;2023-05-16T06:19:50;98248.31;;;9.29;100.00
17505;BME280;8870;50.950;11.762;2023-05-16T06:25:18;98254.56;;;9.30;100.00
17505;BME280;8870;50.950;11.762;2023-05-16T06:30:50;98252.25;;;9.35;100.00
17505;BME280;8870;50.950;11.762;2023-05-16T06:36:09;98267.44;;;9.44;100.00
17505;BME280;8870;50.950;11.762;2023-05-16T06:41:42;98266.44;;;9.45;100.00
17505;BME280;8870;50.950;11.762;2023-05-16T06:47:06;98272.81;;;9.44;100.00
17505;BME280;8870;50.950;11.762;2023-05-16T06:52:37;98278.88;;;9.46;100.00
17505;BME280;8870;50.950;11.762;2023-05-16T06:57:58;98279.63;;;9.56;100.00
17505;BME280;8870;50.950;11.762;2023-05-16T07:03:29;98290.84;;;9.52;100.00
17505;BME280;8870;50.950;11.762;2023-05-16T07:08:47;98293.19;;;9.55;100.00
17505;BME280;8870;50.950;11.762;2023-05-16T07:14:21;98298.09;;;9.60;100.00
17505;BME280;8870;50.950;11.762;2023-05-16T07:19:40;98291.69;;;9.52;100.00
17505;BME280;8870;50.950;11.762;2023-05-16T07:25:10;98285.00;;;9.56;100.00
17505;BME280;8870;50.950;11.762;2023-05-16T07:30:45;98280.34;;;9.67;100.00
17505;BME280;8870;50.950;11.762;2023-05-16T07:36:04;98279.56;;;9.75;100.00
17505;BME280;8870;50.950;11.762;2023-05-16T07:41:35;98282.13;;;9.84;100.00
17505;BME280;8870;50.950;11.762;2023-05-16T07:46:56;98273.03;;;9.85;100.00
17505;BME280;8870;50.950;11.762;2023-05-16T07:52:28;98270.03;;;9.89;100.00
17505;BME280;8870;50.950;11.762;2023-05-16T07:57:47;98284.53;;;9.96;100.00
17505;BME280;8870;50.950;11.762;2023-05-16T08:03:21;98285.06;;;9.99;100.00
17505;BME280;8870;50.950;11.762;2023-05-16T08:08:40;98295.19;;;10.06;100.00
17505;BME280;8870;50.950;11.762;2023-05-16T08:14:11;98293.00;;;10.09;100.00
17505;BME280;8870;50.950;11.762;2023-05-16T08:19:31;98290.69;;;10.14;100.00
17505;BME280;8870;50.950;11.762;2023-05-16T08:25:04;98285.63;;;10.11;100.00
17505;BME280;8870;50.950;11.762;2023-05-16T08:30:23;98292.31;;;10.07;100.00
17505;BME280;8870;50.950;11.762;2023-05-16T08:35:53;98295.19;;;10.06;100.00
17505;BME280;8870;50.950;11.762;2023-05-16T08:41:18;98298.06;;;10.12;100.00
17505;BME280;8870;50.950;11.762;2023-05-16T08:46:40;98296.22;;;10.13;100.00
17505;BME280;8870;50.950;11.762;2023-05-16T08:52:17;98294.88;;;10.09;100.00
17505;BME280;8870;50.950;11.762;2023-05-16T08:57:36;98306.44;;;10.01;100.00
17505;BME280;8870;50.950;11.762;2023-05-16T09:03:08;98311.22;;;9.89;100.00
17505;BME280;8870;50.950;11.762;2023-05-16T09:08:29;98312.72;;;9.83;100.00
17505;BME280;8870;50.950;11.762;2023-05-16T09:14:02;98317.16;;;9.93;100.00
17505;BME280;8870;50.950;11.762;2023-05-16T09:19:22;98318.72;;;10.03;100.00
17505;BME280;8870;50.950;11.762;2023-05-16T09:24:58;98320.84;;;10.26;100.00
17505;BME280;8870;50.950;11.762;2023-05-16T09:30:35;98325.97;;;10.38;100.00
17505;BME280;8870;50.950;11.762;2023-05-16T09:36:06;98329.22;;;10.50;100.00
17505;BME280;8870;50.950;11.762;2023-05-16T09:41:28;98327.22;;;10.52;100.00
17505;BME280;8870;50.950;11.762;2023-05-16T09:47:03;98337.16;;;10.59;100.00
17505;BME280;8870;50.950;11.762;2023-05-16T09:52:21;98359.44;;;10.70;100.00
17505;BME280;8870;50.950;11.762;2023-05-16T09:57:55;98356.75;;;10.78;100.00
17505;BME280;8870;50.950;11.762;2023-05-16T10:03:14;98355.41;;;10.82;100.00
17505;BME280;8870;50.950;11.762;2023-05-16T10:08:46;98350.00;;;10.74;100.00
17505;BME280;8870;50.950;11.762;2023-05-16T10:14:08;98345.78;;;10.71;100.00
17505;BME280;8870;50.950;11.762;2023-05-16T10:19:40;98351.16;;;10.63;100.00
17505;BME280;8870;50.950;11.762;2023-05-16T10:25:06;98343.25;;;10.70;100.00
17505;BME280;8870;50.950;11.762;2023-05-16T10:30:43;98343.28;;;10.78;100.00
17505;BME280;8870;50.950;11.762;2023-05-16T10:36:02;98354.06;;;10.78;100.00
17505;BME280;8870;50.950;11.762;2023-05-16T10:41:34;98359.44;;;10.70;100.00
17505;BME280;8870;50.950;11.762;2023-05-16T10:46:57;98365.31;;;10.73;100.00
17505;BME280;8870;50.950;11.762;2023-05-16T10:52:32;98372.41;;;10.74;100.00
17505;BME280;8870;50.950;11.762;2023-05-16T10:57:51;98363.66;;;10.81;100.00
17505;BME280;8870;50.950;11.762;2023-05-16T11:03:27;98349.88;;;10.92;100.00
17505;BME280;8870;50.950;11.762;2023-05-16T11:08:57;98355.75;;;10.95;100.00
17505;BME280;8870;50.950;11.762;2023-05-16T11:14:36;98354.06;;;10.94;100.00
17505;BME280;8870;50.950;11.762;2023-05-16T11:19:58;98360.97;;;10.81;100.00
17505;BME280;8870;50.950;11.762;2023-05-16T11:25:35;98366.66;;;10.77;100.00
17505;BME280;8870;50.950;11.762;2023-05-16T11:30:57;98368.22;;;10.80;100.00
17505;BME280;8870;50.950;11.762;2023-05-16T11:36:31;98377.81;;;10.83;100.00
17505;BME280;8870;50.950;11.762;2023-05-16T11:41:52;98365.91;;;10.93;100.00
17505;BME280;8870;50.950;11.762;2023-05-16T11:47:25;98374.63;;;10.87;100.00
17505;BME280;8870;50.950;11.762;2023-05-16T11:52:47;98387.91;;;10.81;100.00
17505;BME280;8870;50.950;11.762;2023-05-16T11:58:19;98383.00;;;10.76;100.00
17505;BME280;8870;50.950;11.762;2023-05-16T12:03:40;98381.44;;;10.65;100.00
17505;BME280;8870;50.950;11.762;2023-05-16T12:09:15;98384.59;;;10.52;100.00
17505;BME280;8870;50.950;11.762;2023-05-16T12:14:34;98400.41;;;10.47;100.00
17505;BME280;8870;50.950;11.762;2023-05-16T12:20:09;98394.84;;;10.40;100.00
17505;BME280;8870;50.950;11.762;2023-05-16T12:25:44;98396.84;;;10.38;100.00
17505;BME280;8870;50.950;11.762;2023-05-16T12:31:19;98398.66;;;10.38;100.00
17505;BME280;8870;50.950;11.762;2023-05-16T12:36:40;98401.06;;;10.41;100.00
17505;BME280;8870;50.950;11.762;2023-05-16T12:42:13;98391.84;;;10.52;100.00
17505;BME280;8870;50.950;11.762;2023-05-16T12:47:36;98392.97;;;10.75;100.00
17505;BME280;8870;50.950;11.762;2023-05-16T12:53:11;98386.28;;;10.96;100.00
17505;BME280;8870;50.950;11.762;2023-05-16T12:58:32;98382.78;;;11.12;100.00
17505;BME280;8870;50.950;11.762;2023-05-16T13:04:05;98381.94;;;11.28;100.00
17505;BME280;8870;50.950;11.762;2023-05-16T13:09:28;98384.63;;;11.36;100.00
17505;BME280;8870;50.950;11.762;2023-05-16T13:15:01;98404.22;;;11.55;100.00
17505;BME280;8870;50.950;11.762;2023-05-16T13:20:21;98396.66;;;11.75;100.00
17505;BME280;8870;50.950;11.762;2023-05-16T13:25:53;98403.72;;;11.84;100.00
17505;BME280;8870;50.950;11.762;2023-05-16T13:31:13;98408.91;;;11.94;100.00
17505;BME280;8870;50.950;11.762;2023-05-16T13:53:45;98386.34;;;13.93;100.00
17505;BME280;8870;50.950;11.762;2023-05-16T13:59:21;98397.88;;;13.86;100.00
17505;BME280;8870;50.950;11.762;2023-05-16T14:05:00;98387.50;;;13.75;100.00
17505;BME280;8870;50.950;11.762;2023-05-16T14:10:33;98394.38;;;13.63;100.00
17505;BME280;8870;50.950;11.762;2023-05-16T14:15:52;98403.94;;;13.50;100.00
17505;BME280;8870;50.950;11.762;2023-05-16T14:21:23;98401.97;;;13.36;100.00
17505;BME280;8870;50.950;11.762;2023-05-16T14:26:43;98399.94;;;13.38;100.00
17505;BME280;8870;50.950;11.762;2023-05-16T14:32:16;98404.06;;;13.25;100.00
17505;BME280;8870;50.950;11.762;2023-05-16T14:37:35;98409.25;;;13.35;100.00
17505;BME280;8870;50.950;11.762;2023-05-16T14:43:09;98401.84;;;13.29;100.00
17505;BME280;8870;50.950;11.762;2023-05-16T14:48:28;98406.91;;;13.32;100.00
17505;BME280;8870;50.950;11.762;2023-05-16T14:54:01;98408.25;;;13.05;100.00
17505;BME280;8870;50.950;11.762;2023-05-16T14:59:21;98405.56;;;13.05;100.00
17505;BME280;8870;50.950;11.762;2023-05-16T15:04:53;98395.34;;;13.15;100.00
17505;BME280;8870;50.950;11.762;2023-05-16T15:10:11;98398.31;;;13.29;100.00
17505;BME280;8870;50.950;11.762;2023-05-16T15:15:46;98400.28;;;13.43;100.00
17505;BME280;8870;50.950;11.762;2023-05-16T15:21:05;98408.88;;;13.47;100.00
17505;BME280;8870;50.950;11.762;2023-05-16T15:26:37;98399.72;;;13.48;90.74
17505;BME280;8870;50.950;11.762;2023-05-16T15:32:02;98397.09;;;13.39;88.07
17505;BME280;8870;50.950;11.762;2023-05-16T15:37:35;98390.88;;;13.54;86.05
17505;BME280;8870;50.950;11.762;2023-05-16T15:42:54;98388.16;;;13.77;86.51
17505;BME280;8870;50.950;11.762;2023-05-16T15:48:27;98379.75;;;14.40;82.36
17505;BME280;8870;50.950;11.762;2023-05-16T15:53:46;98376.19;;;14.25;78.08
17505;BME280;8870;50.950;11.762;2023-05-16T15:59:18;98382.91;;;14.14;78.49
17505;BME280;8870;50.950;11.762;2023-05-16T16:04:39;98381.63;;;13.86;84.75
17505;BME280;8870;50.950;11.762;2023-05-16T16:10:11;98381.41;;;14.11;78.22
17505;BME280;8870;50.950;11.762;2023-05-16T16:15:42;98378.63;;;14.35;75.45
17505;BME280;8870;50.950;11.762;2023-05-16T16:21:03;98376.75;;;15.17;67.77
17505;BME280;8870;50.950;11.762;2023-05-16T16:26:34;98374.56;;;15.27;62.64
17505;BME280;8870;50.950;11.762;2023-05-16T16:31:52;98362.22;;;15.24;65.06
17505;BME280;8870;50.950;11.762;2023-05-16T16:37:25;98364.41;;;15.57;60.47
17505;BME280;8870;50.950;11.762;2023-05-16T16:42:44;98380.84;;;15.49;57.41
17505;BME280;8870;50.950;11.762;2023-05-16T16:48:16;98380.63;;;15.72;56.04
17505;BME280;8870;50.950;11.762;2023-05-16T16:53:36;98392.16;;;15.53;56.61
17505;BME280;8870;50.950;11.762;2023-05-16T16:59:08;98383.72;;;15.26;58.50
17505;BME280;8870;50.950;11.762;2023-05-16T17:04:26;98382.19;;;15.60;57.09
17505;BME280;8870;50.950;11.762;2023-05-16T17:10:02;98397.44;;;15.61;53.83
17505;BME280;8870;50.950;11.762;2023-05-16T17:15:22;98388.44;;;15.82;55.86
17505;BME280;8870;50.950;11.762;2023-05-16T17:20:55;98394.56;;;15.84;53.03
17505;BME280;8870;50.950;11.762;2023-05-16T17:26:22;98404.84;;;15.89;51.36
17505;BME280;8870;50.950;11.762;2023-05-16T17:31:54;98414.75;;;15.60;51.80
17505;BME280;8870;50.950;11.762;2023-05-16T17:37:12;98420.63;;;15.20;51.67
17505;BME280;8870;50.950;11.762;2023-05-16T17:42:45;98418.53;;;14.86;51.67
17505;BME280;8870;50.950;11.762;2023-05-16T17:48:06;98427.41;;;14.49;55.76
17505;BME280;8870;50.950;11.762;2023-05-16T17:53:37;98439.38;;;14.40;55.50
17505;BME280;8870;50.950;11.762;2023-05-16T17:58:58;98441.94;;;14.18;56.60
17505;BME280;8870;50.950;11.762;2023-05-16T18:04:31;98451.56;;;13.83;54.51
17505;BME280;8870;50.950;11.762;2023-05-16T18:10:02;98456.13;;;13.82;56.83
17505;BME280;8870;50.950;11.762;2023-05-16T18:15:37;98456.28;;;13.66;57.99
17505;BME280;8870;50.950;11.762;2023-05-16T18:20:55;98466.19;;;13.50;59.38
17505;BME280;8870;50.950;11.762;2023-05-16T18:26:28;98478.81;;;13.26;59.70
17505;BME280;8870;50.950;11.762;2023-05-16T18:32:01;98482.50;;;12.94;58.07
17505;BME280;8870;50.950;11.762;2023-05-16T18:37:20;98489.91;;;12.52;58.72
17505;BME280;8870;50.950;11.762;2023-05-16T18:42:53;98489.59;;;12.22;60.60
17505;BME280;8870;50.950;11.762;2023-05-16T18:48:14;98501.06;;;11.91;62.75
17505;BME280;8870;50.950;11.762;2023-05-16T18:53:49;98504.56;;;11.67;64.32
17505;BME280;8870;50.950;11.762;2023-05-16T18:59:07;98514.34;;;11.51;67.62
17505;BME280;8870;50.950;11.762;2023-05-16T19:04:41;98532.97;;;11.28;74.75
17505;BME280;8870;50.950;11.762;2023-05-16T19:10:00;98533.94;;;11.10;83.82
17505;BME280;8870;50.950;11.762;2023-05-16T19:15:31;98538.53;;;10.92;92.09
17505;BME280;8870;50.950;11.762;2023-05-16T19:20:52;98548.91;;;10.78;94.82
17505;BME280;8870;50.950;11.762;2023-05-16T19:26:23;98560.09;;;10.57;100.00
17505;BME280;8870;50.950;11.762;2023-05-16T19:31:54;98572.00;;;10.37;100.00
17505;BME280;8870;50.950;11.762;2023-05-16T19:37:15;98578.78;;;10.23;100.00
17505;BME280;8870;50.950;11.762;2023-05-16T19:42:46;98574.66;;;10.10;100.00
17505;BME280;8870;50.950;11.762;2023-05-16T19:48:05;98583.97;;;9.98;100.00
17505;BME280;8870;50.950;11.762;2023-05-16T19:53:40;98593.94;;;9.87;100.00
17505;BME280;8870;50.950;11.762;2023-05-16T19:59:00;98592.19;;;9.78;100.00
17505;BME280;8870;50.950;11.762;2023-05-16T20:04:32;98584.69;;;9.72;100.00
17505;BME280;8870;50.950;11.762;2023-05-16T20:09:53;98594.38;;;9.65;100.00
17505;BME280;8870;50.950;11.762;2023-05-16T20:15:24;98599.75;;;9.65;100.00
17505;BME280;8870;50.950;11.762;2023-05-16T20:20:42;98603.03;;;9.59;100.00
17505;BME280;8870;50.950;11.762;2023-05-16T20:26:15;98601.81;;;9.53;100.00
17505;BME280;8870;50.950;11.762;2023-05-16T20:31:34;98618.25;;;9.50;100.00
17505;BME280;8870;50.950;11.762;2023-05-16T20:37:06;98629.06;;;9.40;100.00
17505;BME280;8870;50.950;11.762;2023-05-16T20:42:27;98625.66;;;9.38;100.00
17505;BME280;8870;50.950;11.762;2023-05-16T20:47:58;98624.28;;;9.34;100.00
17505;BME280;8870;50.950;11.762;2023-05-16T20:53:16;98633.63;;;9.30;100.00
17505;BME280;8870;50.950;11.762;2023-05-16T20:58:50;98640.59;;;9.22;100.00
17505;BME280;8870;50.950;11.762;2023-05-16T21:04:08;98634.53;;;9.10;100.00
17505;BME280;8870;50.950;11.762;2023-05-16T21:09:39;98631.16;;;9.08;100.00
17505;BME280;8870;50.950;11.762;2023-05-16T21:15:01;98635.44;;;8.91;100.00
17505;BME280;8870;50.950;11.762;2023-05-16T21:20:32;98629.38;;;8.89;100.00
17505;BME280;8870;50.950;11.762;2023-05-16T21:25:57;98629.41;;;8.79;100.00
17505;BME280;8870;50.950;11.762;2023-05-16T21:31:31;98640.72;;;8.73;100.00
17505;BME280;8870;50.950;11.762;2023-05-16T21:36:49;98643.13;;;8.67;100.00
17505;BME280;8870;50.950;11.762;2023-05-16T21:42:23;98641.59;;;8.54;100.00
17505;BME280;8870;50.950;11.762;2023-05-16T21:47:44;98638.91;;;8.44;100.00
17505;BME280;8870;50.950;11.762;2023-05-16T21:53:17;98632.69;;;8.34;100.00
17505;BME280;8870;50.950;11.762;2023-05-16T21:58:40;98648.22;;;8.30;100.00
17505;BME280;8870;50.950;11.762;2023-05-16T22:04:16;98654.44;;;8.21;100.00
17505;BME280;8870;50.950;11.762;2023-05-16T22:09:35;98653.72;;;8.09;100.00
17505;BME280;8870;50.950;11.762;2023-05-16T22:15:07;98659.78;;;8.01;100.00
17505;BME280;8870;50.950;11.762;2023-05-16T22:20:28;98655.97;;;8.04;100.00
17505;BME280;8870;50.950;11.762;2023-05-16T22:25:59;98658.63;;;7.94;100.00
17505;BME280;8870;50.950;11.762;2023-05-16T22:31:17;98656.66;;;7.96;100.00
17505;BME280;8870;50.950;11.762;2023-05-16T22:36:50;98662.31;;;7.93;100.00
17505;BME280;8870;50.950;11.762;2023-05-16T22:42:09;98678.41;;;7.93;100.00
17505;BME280;8870;50.950;11.762;2023-05-16T22:47:40;98673.31;;;7.90;100.00
17505;BME280;8870;50.950;11.762;2023-05-16T22:53:01;98682.66;;;7.96;100.00
17505;BME280;8870;50.950;11.762;2023-05-16T22:58:33;98678.28;;;7.95;100.00
17505;BME280;8870;50.950;11.762;2023-05-16T23:03:51;98682.78;;;7.94;100.00
17505;BME280;8870;50.950;11.762;2023-05-16T23:09:25;98679.66;;;7.89;100.00
17505;BME280;8870;50.950;11.762;2023-05-16T23:14:43;98680.34;;;7.81;100.00
17505;BME280;8870;50.950;11.762;2023-05-16T23:20:14;98689.66;;;7.67;100.00
17505;BME280;8870;50.950;11.762;2023-05-16T23:25:35;98686.78;;;7.59;100.00
17505;BME280;8870;50.950;11.762;2023-05-16T23:31:07;98696.91;;;7.46;100.00
17505;BME280;8870;50.950;11.762;2023-05-16T23:36:25;98699.69;;;7.34;100.00
17505;BME280;8870;50.950;11.762;2023-05-16T23:41:59;98718.56;;;7.33;100.00
17505;BME280;8870;50.950;11.762;2023-05-16T23:47:17;98710.50;;;7.33;100.00
17505;BME280;8870;50.950;11.762;2023-05-16T23:52:48;98717.97;;;7.29;100.00
17505;BME280;8870;50.950;11.762;2023-05-16T23:58:09;98716.53;;;7.25;100.00
